Time;durP1;ratioP1;P1;durP2;ratioP2;P2;SDS_P1;SDS_P2;PMS_P1;PMS_P2;Temp;Humidity;BMP_temperature;BMP_pressure;BME280_temperature;BME280_humidity;BME280_pressure;Samples;Min_cycle;Max_cycle;Signal;HPM_P1;HPM_P2
2024/01/12 00:01:14;;;;;;;4.23;3.93;;;18.70;33.70;;;;;;4977103;28;20228;-87
2024/01/12 00:03:40;;;;;;;4.10;3.80;;;18.70;33.70;;;;;;4991765;28;20671;-86
2024/01/12 00:06:05;;;;;;;4.13;3.83;;;18.70;33.70;;;;;;4988880;28;20473;-87
2024/01/12 00:08:32;;;;;;;4.93;4.60;;;18.70;33.70;;;;;;4984961;28;20212;-86
2024/01/12 00:10:58;;;;;;;4.70;4.40;;;18.70;33.70;;;;;;4976370;28;20243;-87
2024/01/12 00:13:23;;;;;;;3.80;3.60;;;18.70;33.70;;;;;;4991734;28;20843;-87
2024/01/12 00:15:49;;;;;;;4.40;4.10;;;18.70;33.70;;;;;;4991504;28;20223;-86
2024/01/12 00:18:15;;;;;;;4.13;3.90;;;18.70;33.70;;;;;;4993032;28;20223;-87
2024/01/12 00:20:43;;;;;;;4.50;4.20;;;18.70;33.70;;;;;;4990270;28;20815;-87
2024/01/12 00:23:12;;;;;;;4.27;3.70;;;18.70;33.80;;;;;;4991929;28;20224;-87
2024/01/12 00:25:38;;;;;;;4.43;4.13;;;18.70;33.70;;;;;;4992279;28;20451;-86
2024/01/12 00:28:04;;;;;;;4.63;4.23;;;18.70;34.50;;;;;;5006814;28;20451;-86
2024/01/12 00:30:30;;;;;;;4.23;3.97;;;18.60;33.60;;;;;;5009065;28;20750;-86
2024/01/12 00:32:56;;;;;;;4.60;4.30;;;18.70;33.70;;;;;;5011651;28;20743;-86
2024/01/12 00:35:21;;;;;;;3.77;3.47;;;18.70;33.70;;;;;;5012050;28;20226;-86
2024/01/12 00:37:49;;;;;;;4.30;4.00;;;18.60;33.60;;;;;;5012546;28;20454;-86
2024/01/12 00:40:14;;;;;;;4.33;4.03;;;18.60;33.60;;;;;;5013455;28;20695;-86
2024/01/12 00:42:40;;;;;;;4.07;3.77;;;18.70;33.70;;;;;;4997131;28;20434;-86
2024/01/12 00:45:06;;;;;;;4.60;4.30;;;18.60;33.70;;;;;;4991285;28;20239;-86
2024/01/12 00:47:32;;;;;;;3.90;3.70;;;18.60;33.60;;;;;;4995672;28;20226;-86
2024/01/12 00:49:57;;;;;;;3.80;3.50;;;18.60;33.60;;;;;;5015753;28;20423;-86
2024/01/12 00:52:23;;;;;;;3.70;3.50;;;18.60;33.60;;;;;;5015057;28;20207;-86
2024/01/12 00:54:48;;;;;;;4.27;3.97;;;18.60;33.60;;;;;;5016157;28;20222;-86
2024/01/12 00:57:14;;;;;;;3.50;3.30;;;18.60;33.60;;;;;;5011604;28;21096;-86
2024/01/12 00:59:39;;;;;;;4.03;3.83;;;18.60;33.60;;;;;;4997045;28;20223;-86
2024/01/12 01:02:05;;;;;;;12.47;3.80;;;18.60;33.60;;;;;;4998898;28;20218;-87
2024/01/12 01:04:30;;;;;;;4.00;3.77;;;18.60;33.60;;;;;;4994036;28;20717;-87
2024/01/12 01:06:56;;;;;;;4.53;4.23;;;18.60;33.60;;;;;;4996201;28;21061;-86
2024/01/12 01:09:21;;;;;;;4.97;4.57;;;18.60;33.60;;;;;;5010579;28;20222;-86
2024/01/12 01:11:52;;;;;;;4.33;4.03;;;18.60;33.60;;;;;;5009691;28;20612;-86
2024/01/12 01:14:17;;;;;;;4.70;4.33;;;18.60;34.30;;;;;;4995442;28;20269;-88
2024/01/12 01:16:43;;;;;;;4.57;4.17;;;18.60;33.60;;;;;;5008271;28;20799;-87
2024/01/12 01:19:09;;;;;;;4.30;3.97;;;18.60;33.60;;;;;;5008937;28;20779;-86
2024/01/12 01:21:34;;;;;;;4.73;4.43;;;18.60;33.60;;;;;;5009578;28;20253;-86
2024/01/12 01:24:00;;;;;;;4.90;4.20;;;18.60;33.60;;;;;;5008556;28;20325;-87
2024/01/12 01:26:25;;;;;;;4.53;4.23;;;18.60;33.60;;;;;;5009556;28;20233;-86
2024/01/12 01:28:51;;;;;;;3.70;3.50;;;18.60;33.60;;;;;;5013175;28;20258;-86
2024/01/12 01:31:16;;;;;;;4.00;3.70;;;18.60;33.60;;;;;;5010467;28;20210;-87
2024/01/12 01:33:42;;;;;;;4.13;3.90;;;18.60;33.60;;;;;;4995919;28;22727;-86
2024/01/12 01:36:07;;;;;;;4.57;4.27;;;18.60;33.60;;;;;;5010893;28;20223;-86
2024/01/12 01:38:33;;;;;;;4.87;4.57;;;18.60;33.60;;;;;;4992619;28;20554;-86
2024/01/12 01:40:58;;;;;;;4.50;4.20;;;18.60;33.50;;;;;;5010006;28;20683;-87
2024/01/12 01:43:24;;;;;;;4.10;3.90;;;18.60;33.60;;;;;;5009692;28;20219;-86
2024/01/12 01:45:49;;;;;;;5.10;4.80;;;18.60;33.60;;;;;;5010904;28;20239;-86
2024/01/12 01:48:15;;;;;;;4.03;3.73;;;18.60;33.60;;;;;;5009984;28;20234;-86
2024/01/12 01:50:41;;;;;;;4.50;4.20;;;18.60;33.70;;;;;;4994166;28;20227;-86
2024/01/12 01:53:07;;;;;;;4.87;4.57;;;18.60;33.60;;;;;;5011628;28;20219;-87
2024/01/12 01:55:33;;;;;;;3.90;3.70;;;18.60;33.60;;;;;;5008277;28;20423;-86
2024/01/12 01:58:00;;;;;;;4.30;4.10;;;18.60;33.60;;;;;;5012287;28;20414;-86
2024/01/12 02:00:26;;;;;;;4.17;3.87;;;18.60;33.60;;;;;;5006999;28;20226;-87
2024/01/12 02:02:52;;;;;;;4.27;3.97;;;18.60;33.60;;;;;;5008108;28;20449;-87
2024/01/12 02:05:18;;;;;;;4.70;4.30;;;18.60;33.60;;;;;;5009557;28;20925;-87
2024/01/12 02:07:43;;;;;;;4.40;4.13;;;18.60;33.60;;;;;;5010500;28;20223;-86
2024/01/12 02:10:09;;;;;;;4.33;4.03;;;18.60;33.50;;;;;;5009991;28;20566;-86
2024/01/12 02:12:39;;;;;;;3.83;3.63;;;18.60;33.60;;;;;;5011934;28;20214;-87
2024/01/12 02:15:07;;;;;;;3.93;3.73;;;18.60;33.50;;;;;;5013754;28;20274;-87
2024/01/12 02:17:33;;;;;;;4.60;4.30;;;18.60;33.50;;;;;;5015607;28;20447;-87
2024/01/12 02:20:00;;;;;;;4.33;4.03;;;18.60;33.50;;;;;;5012630;28;20424;-86
2024/01/12 02:22:25;;;;;;;4.60;4.30;;;18.60;33.50;;;;;;5013100;28;20527;-87
2024/01/12 02:24:51;;;;;;;4.40;4.10;;;18.60;33.50;;;;;;5011869;28;20476;-87
2024/01/12 02:27:17;;;;;;;4.47;4.17;;;18.60;33.50;;;;;;5014013;28;20227;-86
2024/01/12 02:29:44;;;;;;;4.40;4.00;;;18.60;33.50;;;;;;4999045;28;20650;-87
2024/01/12 02:32:09;;;;;;;4.27;3.97;;;18.60;33.50;;;;;;5016333;28;20407;-87
2024/01/12 02:34:35;;;;;;;4.10;3.80;;;18.60;33.50;;;;;;5012554;28;21233;-87
2024/01/12 02:37:01;;;;;;;4.73;4.43;;;18.60;33.50;;;;;;5014002;28;20214;-86
2024/01/12 02:39:26;;;;;;;3.80;3.60;;;18.60;33.40;;;;;;5013539;28;20706;-86
2024/01/12 02:41:52;;;;;;;4.50;4.10;;;18.60;33.40;;;;;;5013980;28;20234;-86
2024/01/12 02:44:17;;;;;;;4.30;4.00;;;18.60;33.40;;;;;;5012914;28;21030;-87
2024/01/12 02:46:43;;;;;;;4.17;3.87;;;18.60;34.20;;;;;;5011785;28;20261;-86
2024/01/12 02:49:08;;;;;;;4.33;4.03;;;18.60;33.50;;;;;;5001965;28;20229;-87
2024/01/12 02:51:34;;;;;;;3.80;3.60;;;18.60;33.40;;;;;;5013849;28;20223;-86
2024/01/12 02:54:00;;;;;;;4.40;4.13;;;18.60;33.50;;;;;;4999767;28;20229;-87
2024/01/12 02:56:25;;;;;;;3.80;3.60;;;18.60;33.50;;;;;;5010425;28;20479;-87
2024/01/12 02:58:51;;;;;;;4.77;4.47;;;18.60;33.40;;;;;;5017772;28;20298;-87
2024/01/12 03:01:19;;;;;;;4.40;4.10;;;18.60;33.50;;;;;;5014358;28;20551;-87
2024/01/12 03:03:45;;;;;;;3.77;3.53;;;18.60;33.40;;;;;;4991716;28;20222;-87
2024/01/12 03:06:10;;;;;;;4.57;4.27;;;18.60;33.50;;;;;;4997460;28;20501;-87
2024/01/12 03:08:36;;;;;;;4.80;4.43;;;18.60;33.50;;;;;;5012205;28;20272;-86
2024/01/12 03:11:02;;;;;;;4.20;3.90;;;18.60;33.40;;;;;;5011535;28;20223;-87
2024/01/12 03:13:28;;;;;;;4.17;3.97;;;18.60;33.40;;;;;;4991679;28;20234;-87
2024/01/12 03:15:53;;;;;;;4.37;4.07;;;18.60;33.40;;;;;;5010260;28;20225;-87
2024/01/12 03:18:19;;;;;;;4.20;4.00;;;18.60;33.40;;;;;;5014321;28;20808;-86
2024/01/12 03:20:45;;;;;;;4.80;4.40;;;18.60;33.30;;;;;;4998142;28;20226;-86
2024/01/12 03:23:10;;;;;;;4.33;4.03;;;18.60;33.40;;;;;;4997115;28;21009;-87
2024/01/12 03:25:36;;;;;;;4.40;4.20;;;18.60;33.40;;;;;;4994865;28;20234;-87
2024/01/12 03:28:01;;;;;;;5.33;4.87;;;18.60;33.50;;;;;;5010266;28;20238;-87
2024/01/12 03:30:27;;;;;;;4.93;4.63;;;18.60;33.40;;;;;;5011321;28;20224;-87
2024/01/12 03:32:52;;;;;;;4.10;3.80;;;18.60;33.50;;;;;;4999810;28;20241;-87
2024/01/12 03:35:18;;;;;;;4.10;3.80;;;18.60;33.50;;;;;;4996559;28;20247;-87
2024/01/12 03:37:43;;;;;;;4.83;4.53;;;18.60;33.40;;;;;;5016296;28;20278;-87
2024/01/12 03:40:10;;;;;;;4.83;4.43;;;18.60;33.50;;;;;;5012143;28;20662;-87
2024/01/12 03:42:35;;;;;;;4.60;4.30;;;18.60;33.50;;;;;;5013038;28;20211;-87
2024/01/12 03:45:01;;;;;;;4.80;4.50;;;18.60;33.40;;;;;;5010327;28;20796;-87
2024/01/12 03:47:26;;;;;;;4.53;4.23;;;18.60;33.50;;;;;;5012729;28;20203;-87
2024/01/12 03:49:52;;;;;;;4.67;4.37;;;18.60;33.50;;;;;;5010343;28;21717;-87
2024/01/12 03:52:17;;;;;;;4.10;3.90;;;18.60;33.50;;;;;;5010618;28;20678;-87
2024/01/12 03:54:43;;;;;;;4.53;4.23;;;18.60;33.40;;;;;;5011158;28;20867;-87
2024/01/12 03:57:08;;;;;;;6.27;5.10;;;18.60;33.40;;;;;;5011478;28;20279;-86
2024/01/12 03:59:34;;;;;;;4.07;3.87;;;18.60;33.40;;;;;;5008781;28;20231;-87
2024/01/12 04:01:59;;;;;;;4.53;4.23;;;18.60;33.40;;;;;;5011448;28;20211;-87
2024/01/12 04:04:25;;;;;;;4.87;4.57;;;18.60;33.40;;;;;;4997237;28;20237;-87
2024/01/12 04:06:50;;;;;;;5.10;4.80;;;18.60;33.50;;;;;;5011296;28;20238;-86
2024/01/12 04:09:16;;;;;;;3.90;3.70;;;18.50;33.30;;;;;;5009595;28;20262;-88
2024/01/12 04:11:42;;;;;;;4.60;4.40;;;18.50;33.40;;;;;;5009440;28;20670;-87
2024/01/12 04:14:08;;;;;;;4.40;4.10;;;18.60;33.50;;;;;;5011108;28;20221;-86
2024/01/12 04:16:33;;;;;;;4.60;4.30;;;18.50;33.30;;;;;;5009852;28;20449;-86
2024/01/12 04:18:59;;;;;;;4.80;4.50;;;18.50;33.40;;;;;;5011085;28;20622;-87
2024/01/12 04:21:25;;;;;;;4.70;4.40;;;18.50;33.40;;;;;;5009835;28;20226;-87
2024/01/12 04:23:50;;;;;;;4.23;4.03;;;18.50;33.30;;;;;;5002607;28;20244;-88
2024/01/12 04:26:16;;;;;;;4.40;4.10;;;18.50;33.40;;;;;;4994860;28;20269;-87
2024/01/12 04:28:41;;;;;;;4.90;4.57;;;18.50;33.40;;;;;;5011439;28;20283;-88
2024/01/12 04:31:07;;;;;;;4.03;3.73;;;18.60;33.50;;;;;;5010814;28;20326;-87
2024/01/12 04:33:33;;;;;;;4.43;4.13;;;18.50;33.30;;;;;;4990694;28;20223;-87
2024/01/12 04:36:00;;;;;;;4.73;4.33;;;18.50;33.30;;;;;;5010495;28;20223;-88
2024/01/12 04:38:27;;;;;;;4.30;4.00;;;18.50;33.30;;;;;;4997786;28;21469;-88
2024/01/12 04:40:53;;;;;;;4.67;4.37;;;18.50;33.40;;;;;;5009748;28;20449;-87
2024/01/12 04:43:19;;;;;;;4.13;3.83;;;18.50;33.30;;;;;;5011727;28;20482;-87
2024/01/12 04:45:45;;;;;;;4.47;4.17;;;18.50;33.30;;;;;;5009198;28;20460;-87
2024/01/12 04:48:10;;;;;;;4.80;4.40;;;18.60;33.50;;;;;;5009930;28;20222;-87
2024/01/12 04:50:36;;;;;;;4.50;4.20;;;18.60;33.40;;;;;;5008122;28;20705;-87
2024/01/12 04:53:01;;;;;;;4.00;3.80;;;18.60;33.50;;;;;;5011878;28;20250;-85
2024/01/12 04:55:27;;;;;;;4.20;3.90;;;18.60;33.40;;;;;;5010756;28;20285;-87
2024/01/12 04:57:53;;;;;;;4.90;4.60;;;18.60;33.30;;;;;;4997544;28;20675;-85
2024/01/12 05:00:19;;;;;;;4.20;3.90;;;18.60;33.30;;;;;;5010357;28;20309;-86
2024/01/12 05:02:45;;;;;;;4.80;4.50;;;18.60;33.30;;;;;;5008712;28;20341;-85
2024/01/12 05:05:10;;;;;;;4.47;4.27;;;18.60;33.30;;;;;;5005545;28;21467;-86
2024/01/12 05:07:36;;;;;;;4.23;3.93;;;18.60;33.30;;;;;;5009156;28;20280;-85
2024/01/12 05:10:03;;;;;;;4.73;4.37;;;18.60;33.30;;;;;;4998941;28;20211;-85
2024/01/12 05:12:29;;;;;;;4.80;4.50;;;18.60;33.20;;;;;;5011765;28;20250;-85
2024/01/12 05:14:54;;;;;;;4.37;4.07;;;18.60;33.20;;;;;;5015045;28;20529;-86
2024/01/12 05:17:20;;;;;;;5.13;4.73;;;18.60;33.20;;;;;;5018552;28;20219;-86
2024/01/12 05:19:46;;;;;;;4.53;4.13;;;18.60;33.20;;;;;;4999775;28;20210;-86
2024/01/12 05:22:11;;;;;;;3.97;3.77;;;18.60;33.10;;;;;;5014958;28;20302;-85
2024/01/12 05:24:37;;;;;;;4.07;3.87;;;18.60;33.10;;;;;;5012299;28;20260;-86
2024/01/12 05:27:03;;;;;;;4.33;4.03;;;18.70;33.20;;;;;;4998297;28;20282;-86
2024/01/12 05:29:28;;;;;;;4.77;4.47;;;18.70;33.20;;;;;;5009669;28;21225;-86
2024/01/12 05:31:54;;;;;;;4.63;4.33;;;18.70;33.20;;;;;;5012829;28;20222;-85
2024/01/12 05:34:20;;;;;;;4.80;4.50;;;18.70;33.10;;;;;;5011807;28;20215;-84
2024/01/12 05:36:45;;;;;;;4.73;4.33;;;18.70;33.90;;;;;;4995777;28;21442;-84
2024/01/12 05:39:11;;;;;;;4.50;4.10;;;18.70;33.10;;;;;;5012771;28;20222;-84
2024/01/12 05:41:36;;;;;;;4.20;4.00;;;18.70;33.20;;;;;;5003703;28;20215;-84
2024/01/12 05:44:02;;;;;;;5.43;4.93;;;18.70;33.20;;;;;;5001620;28;20226;-84
2024/01/12 05:46:27;;;;;;;5.30;4.80;;;18.70;33.30;;;;;;5004021;28;20235;-84
2024/01/12 05:48:53;;;;;;;4.23;3.93;;;18.70;33.20;;;;;;5008421;28;20289;-84
2024/01/12 05:51:19;;;;;;;4.90;4.50;;;18.70;33.30;;;;;;5012190;28;20237;-83
2024/01/12 05:53:45;;;;;;;4.20;3.90;;;18.70;33.30;;;;;;5011590;28;20215;-83
2024/01/12 05:56:11;;;;;;;4.87;4.57;;;18.70;33.30;;;;;;5007265;28;20473;-84
2024/01/12 05:58:36;;;;;;;5.10;4.60;;;18.70;33.30;;;;;;5013349;28;20215;-86
2024/01/12 06:01:02;;;;;;;4.27;4.07;;;18.70;33.30;;;;;;5004251;28;20871;-86
2024/01/12 06:03:30;;;;;;;5.00;4.60;;;18.70;33.30;;;;;;4984675;28;20241;-84
2024/01/12 06:05:56;;;;;;;4.30;4.00;;;18.70;33.30;;;;;;5007138;28;20329;-85
2024/01/12 06:08:22;;;;;;;5.43;4.53;;;18.70;33.30;;;;;;4992948;28;20446;-84
2024/01/12 06:10:48;;;;;;;4.63;4.23;;;18.70;33.30;;;;;;5004886;28;20488;-85
2024/01/12 06:13:13;;;;;;;5.43;4.93;;;18.70;33.40;;;;;;4986364;28;20227;-84
2024/01/12 06:15:39;;;;;;;7.33;4.43;;;18.70;33.40;;;;;;4985621;28;20503;-88
2024/01/12 06:18:05;;;;;;;4.93;4.53;;;18.70;33.50;;;;;;4997875;28;20257;-84
2024/01/12 06:20:31;;;;;;;4.97;4.67;;;18.70;33.50;;;;;;5004345;28;20223;-85
2024/01/12 06:22:56;;;;;;;4.97;4.57;;;18.70;33.50;;;;;;5003942;28;20722;-84
2024/01/12 06:25:23;;;;;;;4.73;4.43;;;18.70;33.50;;;;;;5000267;28;20303;-85
2024/01/12 06:27:49;;;;;;;4.87;4.37;;;18.70;33.50;;;;;;4983511;28;20235;-84
2024/01/12 06:30:15;;;;;;;4.60;4.30;;;18.70;33.50;;;;;;5008653;28;20448;-84
2024/01/12 06:32:40;;;;;;;4.83;4.43;;;18.70;33.50;;;;;;5008361;28;20450;-85
2024/01/12 06:35:11;;;;;;;5.30;5.00;;;18.70;33.50;;;;;;4996396;28;20218;-84
2024/01/12 06:37:37;;;;;;;5.17;4.73;;;18.70;33.60;;;;;;5007669;28;20210;-84
2024/01/12 06:40:04;;;;;;;4.40;4.10;;;18.70;33.50;;;;;;5001671;28;20468;-84
2024/01/12 06:42:30;;;;;;;5.87;5.27;;;18.70;33.60;;;;;;5003442;28;20444;-84
2024/01/12 06:44:56;;;;;;;7.13;4.80;;;18.70;33.60;;;;;;5016028;28;20423;-83
2024/01/12 06:47:22;;;;;;;5.10;4.70;;;18.70;33.60;;;;;;5018977;28;20223;-83
2024/01/12 06:49:47;;;;;;;5.53;4.90;;;18.70;33.60;;;;;;5020356;28;20817;-83
2024/01/12 06:52:13;;;;;;;5.33;4.93;;;18.70;33.60;;;;;;5015440;28;20231;-83
2024/01/12 06:54:44;;;;;;;4.97;4.47;;;18.70;33.60;;;;;;5014020;28;20752;-83
2024/01/12 06:57:10;;;;;;;4.10;3.80;;;18.70;33.70;;;;;;5016181;28;20349;-83
2024/01/12 06:59:36;;;;;;;5.10;4.70;;;18.70;33.60;;;;;;5019650;28;20435;-83
2024/01/12 07:02:02;;;;;;;4.87;4.57;;;18.70;33.60;;;;;;5016472;28;20475;-84
2024/01/12 07:04:27;;;;;;;5.07;4.67;;;18.70;33.60;;;;;;5023597;28;20216;-84
2024/01/12 07:06:53;;;;;;;4.87;4.47;;;18.70;33.60;;;;;;5021616;28;20235;-84
2024/01/12 07:09:19;;;;;;;4.93;4.53;;;18.70;33.60;;;;;;5013967;28;20256;-83
2024/01/12 07:11:45;;;;;;;5.30;4.80;;;18.70;33.70;;;;;;4989785;28;20226;-83
2024/01/12 07:14:13;;;;;;;4.43;4.10;;;18.70;33.60;;;;;;5014517;28;20477;-83
2024/01/12 07:16:38;;;;;;;4.87;4.40;;;18.70;33.60;;;;;;5008065;28;20458;-83
2024/01/12 07:19:04;;;;;;;4.60;4.30;;;18.70;33.70;;;;;;5010536;28;20519;-84
2024/01/12 07:21:29;;;;;;;5.17;4.77;;;18.70;33.70;;;;;;5009430;28;20233;-83
2024/01/12 07:23:55;;;;;;;5.20;4.80;;;18.70;33.60;;;;;;5009390;28;20651;-83
2024/01/12 07:26:21;;;;;;;5.07;4.60;;;18.70;33.70;;;;;;5006385;28;20282;-83
2024/01/12 07:28:46;;;;;;;5.17;4.40;;;18.70;33.70;;;;;;5010468;28;20226;-83
2024/01/12 07:31:12;;;;;;;6.47;4.37;;;18.70;33.70;;;;;;5010385;28;20265;-84
2024/01/12 07:33:38;;;;;;;4.47;4.17;;;18.70;33.70;;;;;;5019415;28;20252;-85
2024/01/12 07:36:03;;;;;;;5.63;5.13;;;18.70;33.70;;;;;;5012044;28;20245;-83
2024/01/12 07:38:29;;;;;;;4.83;4.53;;;18.60;33.60;;;;;;4994001;28;20301;-83
2024/01/12 07:40:55;;;;;;;5.07;4.67;;;18.70;33.70;;;;;;5009570;28;20231;-83
2024/01/12 07:43:20;;;;;;;5.10;4.70;;;18.70;33.80;;;;;;5013413;28;20311;-84
2024/01/12 07:45:46;;;;;;;6.03;5.10;;;18.70;33.70;;;;;;4992215;28;20239;-83
2024/01/12 07:48:11;;;;;;;5.40;4.90;;;18.70;33.70;;;;;;5006460;28;20648;-83
2024/01/12 07:50:37;;;;;;;5.63;5.13;;;18.70;33.70;;;;;;4991462;28;20234;-83
2024/01/12 07:53:03;;;;;;;5.93;5.37;;;18.70;33.70;;;;;;4999390;28;20330;-83
2024/01/12 07:55:28;;;;;;;5.33;4.83;;;18.70;33.60;;;;;;4980242;28;20260;-83
2024/01/12 07:57:54;;;;;;;5.53;5.03;;;18.70;33.70;;;;;;5008801;28;20257;-83
2024/01/12 08:00:20;;;;;;;4.50;4.20;;;18.70;33.70;;;;;;5012383;28;20234;-83
2024/01/12 08:02:45;;;;;;;5.23;4.73;;;18.70;33.60;;;;;;5016523;28;20750;-83
2024/01/12 08:05:11;;;;;;;5.37;4.97;;;18.60;33.60;;;;;;4998358;28;20231;-83
2024/01/12 08:07:40;;;;;;;4.63;4.33;;;18.60;33.60;;;;;;5013406;28;20298;-83
2024/01/12 08:10:06;;;;;;;5.00;4.60;;;18.60;33.60;;;;;;5000078;28;20221;-83
2024/01/12 08:12:31;;;;;;;5.00;4.47;;;18.60;33.60;;;;;;5016372;28;20449;-83
2024/01/12 08:14:57;;;;;;;6.00;5.40;;;18.60;33.60;;;;;;5016846;28;20459;-83
2024/01/12 08:17:22;;;;;;;5.07;4.70;;;18.60;33.60;;;;;;4999375;28;20215;-83
2024/01/12 08:19:48;;;;;;;5.20;4.70;;;18.60;33.50;;;;;;5001301;28;20258;-84
2024/01/12 08:22:14;;;;;;;5.23;4.73;;;18.60;33.60;;;;;;5019280;28;20304;-90
2024/01/12 08:24:40;;;;;;;5.20;4.70;;;18.60;33.60;;;;;;5014888;28;20238;-84
2024/01/12 08:27:06;;;;;;;4.93;4.53;;;18.60;33.60;;;;;;5016362;28;20580;-85
2024/01/12 08:29:31;;;;;;;5.33;4.93;;;18.60;33.60;;;;;;4994710;28;20457;-84
2024/01/12 08:31:58;;;;;;;4.63;4.30;;;18.60;33.60;;;;;;5006894;28;20223;-85
2024/01/12 08:34:24;;;;;;;4.40;4.10;;;18.60;33.60;;;;;;5012586;28;20237;-83
2024/01/12 08:36:50;;;;;;;5.27;4.87;;;18.60;33.60;;;;;;5014845;28;20438;-84
2024/01/12 08:39:16;;;;;;;5.10;4.80;;;18.60;33.60;;;;;;4997632;28;20836;-83
2024/01/12 08:41:42;;;;;;;4.47;4.07;;;18.60;33.60;;;;;;5016226;28;20230;-83
2024/01/12 08:44:07;;;;;;;4.73;4.33;;;18.60;33.70;;;;;;5015349;28;20467;-83
2024/01/12 08:46:33;;;;;;;4.40;4.10;;;18.60;33.70;;;;;;5014911;28;20263;-83
2024/01/12 08:49:00;;;;;;;5.10;4.70;;;18.60;34.40;;;;;;5016246;28;20311;-83
2024/01/12 08:51:25;;;;;;;4.80;4.50;;;18.60;33.70;;;;;;5007724;28;20226;-82
2024/01/12 08:53:51;;;;;;;4.37;4.07;;;18.60;33.60;;;;;;5014875;28;20463;-84
2024/01/12 08:56:17;;;;;;;4.50;4.20;;;18.60;33.70;;;;;;4999350;28;20223;-84
2024/01/12 08:58:43;;;;;;;4.73;4.40;;;18.60;33.60;;;;;;5015182;28;20217;-85
2024/01/12 09:01:08;;;;;;;5.40;4.90;;;18.60;33.60;;;;;;5014947;28;20427;-84
2024/01/12 09:03:34;;;;;;;5.63;4.60;;;18.60;33.60;;;;;;5008558;28;20235;-84
2024/01/12 09:05:59;;;;;;;4.87;4.47;;;18.60;33.70;;;;;;5000041;28;20325;-84
2024/01/12 09:08:25;;;;;;;4.77;4.43;;;18.60;33.60;;;;;;5014956;28;20253;-84
2024/01/12 09:10:50;;;;;;;5.60;5.10;;;18.60;33.70;;;;;;5001318;28;20231;-86
2024/01/12 09:13:16;;;;;;;4.90;4.50;;;18.60;34.40;;;;;;4999050;28;20218;-84
2024/01/12 09:15:41;;;;;;;4.40;4.00;;;18.60;33.60;;;;;;5014129;28;20227;-83
2024/01/12 09:18:08;;;;;;;5.07;4.57;;;18.60;33.70;;;;;;5014169;28;20231;-84
2024/01/12 09:20:33;;;;;;;4.90;4.50;;;18.60;33.60;;;;;;5015983;28;21002;-84
2024/01/12 09:22:59;;;;;;;4.60;4.20;;;18.60;33.70;;;;;;4998634;28;20415;-85
2024/01/12 09:25:25;;;;;;;4.47;4.07;;;18.60;33.60;;;;;;4999147;28;20234;-84
2024/01/12 09:27:52;;;;;;;4.30;4.10;;;18.60;33.60;;;;;;5008352;28;20235;-84
2024/01/12 09:30:21;;;;;;;5.27;4.83;;;18.60;33.70;;;;;;4987047;28;20484;-85
2024/01/12 09:32:47;;;;;;;4.80;4.50;;;18.60;33.70;;;;;;4978776;28;20794;-84
2024/01/12 09:35:12;;;;;;;4.60;4.30;;;18.60;34.50;;;;;;4995419;28;20424;-84
2024/01/12 09:37:38;;;;;;;4.17;3.73;;;18.60;33.70;;;;;;4994549;28;20912;-85
2024/01/12 09:40:04;;;;;;;4.30;4.10;;;18.60;33.70;;;;;;4995895;28;20873;-85
2024/01/12 09:42:32;;;;;;;4.50;4.10;;;18.60;33.70;;;;;;4994579;28;20750;-84
2024/01/12 09:44:59;;;;;;;4.43;4.13;;;18.60;33.70;;;;;;4998638;28;20469;-84
2024/01/12 09:47:26;;;;;;;4.07;3.77;;;18.50;33.60;;;;;;4996343;28;20545;-84
2024/01/12 09:49:53;;;;;;;4.33;4.03;;;18.60;33.70;;;;;;4996866;28;20465;-86
2024/01/12 09:52:19;;;;;;;4.50;4.10;;;18.60;33.70;;;;;;4996753;28;20416;-85
2024/01/12 09:54:45;;;;;;;4.40;4.00;;;18.50;33.70;;;;;;4976874;28;20462;-83
2024/01/12 09:57:14;;;;;;;3.97;3.67;;;18.60;33.70;;;;;;4981846;28;21458;-85
2024/01/12 09:59:42;;;;;;;4.53;4.23;;;18.50;33.60;;;;;;4981347;28;20493;-85
2024/01/12 10:02:12;;;;;;;4.50;4.20;;;18.50;33.60;;;;;;4982211;28;20436;-83
2024/01/12 10:04:38;;;;;;;4.20;3.90;;;18.50;33.70;;;;;;4997705;28;20445;-83
2024/01/12 10:07:03;;;;;;;4.00;3.57;;;18.50;33.70;;;;;;5005431;28;20560;-83
2024/01/12 10:09:29;;;;;;;4.90;4.50;;;18.50;33.60;;;;;;4991798;28;20227;-83
2024/01/12 10:11:55;;;;;;;3.83;3.60;;;18.50;33.70;;;;;;5006739;28;20243;-83
2024/01/12 10:14:22;;;;;;;4.33;3.93;;;18.50;33.70;;;;;;4989207;28;20749;-83
2024/01/12 10:16:55;;;;;;;3.37;3.17;;;18.50;33.70;;;;;;4986778;28;20877;-84
2024/01/12 10:19:21;;;;;;;3.93;3.63;;;18.50;33.80;;;;;;5005509;28;20502;-84
2024/01/12 10:21:47;;;;;;;4.17;3.87;;;18.50;33.80;;;;;;5005009;28;20522;-84
2024/01/12 10:24:19;;;;;;;4.90;4.50;;;18.50;33.80;;;;;;5004221;28;20230;-83
2024/01/12 10:26:50;;;;;;;4.50;4.10;;;18.50;33.80;;;;;;5003079;28;20431;-84
2024/01/12 10:29:17;;;;;;;4.40;4.10;;;18.50;33.80;;;;;;5020840;28;21103;-84
2024/01/12 10:31:43;;;;;;;3.80;3.50;;;18.50;33.80;;;;;;5021913;28;20477;-84
2024/01/12 10:34:11;;;;;;;4.30;4.00;;;18.50;33.90;;;;;;5021449;28;20547;-83
2024/01/12 10:36:38;;;;;;;3.97;3.77;;;18.50;33.90;;;;;;5022174;28;20420;-83
2024/01/12 10:39:09;;;;;;;4.70;4.30;;;18.50;34.00;;;;;;5023123;28;20425;-84
2024/01/12 10:41:36;;;;;;;4.43;4.03;;;18.50;33.80;;;;;;5008294;28;20982;-83
2024/01/12 10:44:05;;;;;;;3.60;3.40;;;18.50;33.80;;;;;;5007130;28;20450;-83
2024/01/12 10:46:45;;;;;;;4.13;3.83;;;18.50;33.90;;;;;;5003133;28;20805;-83
2024/01/12 10:49:10;;;;;;;3.60;3.40;;;18.50;33.80;;;;;;5023959;28;20488;-84
2024/01/12 10:51:38;;;;;;;4.30;4.00;;;18.50;33.90;;;;;;5006336;28;20902;-83
2024/01/12 10:54:18;;;;;;;4.03;3.73;;;18.50;34.00;;;;;;5023330;28;20309;-84
2024/01/12 10:56:45;;;;;;;4.73;4.33;;;18.50;34.00;;;;;;5008018;28;20430;-84
2024/01/12 10:59:11;;;;;;;3.90;3.70;;;18.50;34.00;;;;;;5020649;28;20468;-83
2024/01/12 11:01:38;;;;;;;4.33;3.93;;;18.50;34.00;;;;;;5021403;28;20647;-82
2024/01/12 11:04:04;;;;;;;4.43;4.03;;;18.50;34.00;;;;;;5021295;28;20451;-83
2024/01/12 11:06:31;;;;;;;3.13;2.93;;;18.50;34.00;;;;;;5021335;28;20454;-82
2024/01/12 11:08:57;;;;;;;4.27;3.97;;;18.50;34.00;;;;;;5020163;28;20464;-83
2024/01/12 11:11:29;;;;;;;3.50;3.20;;;18.50;34.00;;;;;;5003966;28;20443;-82
2024/01/12 11:13:55;;;;;;;3.30;3.10;;;18.50;34.10;;;;;;5019965;28;20411;-82
2024/01/12 11:16:21;;;;;;;3.77;3.47;;;18.50;34.00;;;;;;5016585;28;20452;-83
2024/01/12 11:18:47;;;;;;;3.80;3.50;;;18.50;34.10;;;;;;5018530;28;20940;-83
2024/01/12 11:21:21;;;;;;;4.03;2.90;;;18.50;34.00;;;;;;5002469;28;20219;-83
2024/01/12 11:23:47;;;;;;;3.27;3.07;;;18.50;34.10;;;;;;5019430;28;20269;-83
2024/01/12 11:26:13;;;;;;;3.73;3.53;;;18.50;34.00;;;;;;5001007;28;20514;-83
2024/01/12 11:28:39;;;;;;;4.37;4.07;;;18.50;34.00;;;;;;5004596;28;20483;-83
2024/01/12 11:31:05;;;;;;;3.40;3.20;;;18.50;34.10;;;;;;5014840;28;20733;-83
2024/01/12 11:33:38;;;;;;;4.20;3.80;;;18.50;34.00;;;;;;5018447;28;20313;-82
2024/01/12 11:36:09;;;;;;;3.70;3.50;;;18.50;34.00;;;;;;5017898;28;20419;-83
2024/01/12 11:38:42;;;;;;;3.60;3.30;;;18.50;34.00;;;;;;5018118;28;20488;-83
2024/01/12 11:41:14;;;;;;;4.10;3.80;;;18.50;34.00;;;;;;5019519;28;20422;-84
2024/01/12 11:43:47;;;;;;;4.10;3.80;;;18.50;34.00;;;;;;5017614;28;20537;-82
2024/01/12 11:46:12;;;;;;;4.40;4.10;;;18.50;34.00;;;;;;5011115;28;20442;-83
2024/01/12 11:48:38;;;;;;;4.13;3.83;;;18.50;34.00;;;;;;5019990;28;20507;-83
2024/01/12 11:51:03;;;;;;;4.40;4.00;;;18.50;34.00;;;;;;5018231;28;20609;-83
2024/01/12 11:53:31;;;;;;;4.63;4.27;;;18.50;34.10;;;;;;5018037;28;20810;-83
2024/01/12 11:55:57;;;;;;;4.47;4.20;;;18.50;34.00;;;;;;5015795;28;20246;-83
2024/01/12 11:58:22;;;;;;;5.13;4.73;;;18.50;34.00;;;;;;5019385;28;20973;-83
2024/01/12 12:00:49;;;;;;;5.00;4.70;;;18.50;34.00;;;;;;5014977;28;20662;-83
2024/01/12 12:03:14;;;;;;;5.87;5.30;;;18.50;34.10;;;;;;5017149;28;20288;-83
2024/01/12 12:05:41;;;;;;;5.23;4.87;;;18.50;34.00;;;;;;5014511;28;20446;-83
2024/01/12 12:08:06;;;;;;;6.40;5.90;;;18.50;34.10;;;;;;4997998;28;20219;-83
2024/01/12 12:10:32;;;;;;;6.20;5.60;;;18.50;34.00;;;;;;5016564;28;20415;-83
2024/01/12 12:12:57;;;;;;;5.73;5.30;;;18.50;34.10;;;;;;5018301;28;20245;-82
2024/01/12 12:15:24;;;;;;;5.47;5.07;;;18.50;34.10;;;;;;5018699;28;20681;-83
2024/01/12 12:17:50;;;;;;;5.40;4.90;;;18.50;34.00;;;;;;5015670;28;20381;-83
2024/01/12 12:20:16;;;;;;;4.93;4.53;;;18.50;34.00;;;;;;5016805;28;20437;-82
2024/01/12 12:22:43;;;;;;;5.10;4.70;;;18.50;34.00;;;;;;5019928;28;20219;-83
2024/01/12 12:25:10;;;;;;;5.80;5.30;;;18.50;34.10;;;;;;5017216;28;20237;-83
2024/01/12 12:27:39;;;;;;;5.33;4.93;;;18.50;34.00;;;;;;5015430;28;20435;-83
2024/01/12 12:30:10;;;;;;;5.70;5.20;;;18.50;34.00;;;;;;5016676;28;20460;-83
2024/01/12 12:32:38;;;;;;;5.53;5.13;;;18.50;34.00;;;;;;4995270;28;20804;-83
2024/01/12 12:35:14;;;;;;;5.90;5.50;;;18.50;34.10;;;;;;5011748;28;20430;-83
2024/01/12 12:37:42;;;;;;;6.20;5.60;;;18.50;34.10;;;;;;5014583;28;20456;-84
2024/01/12 12:40:11;;;;;;;5.73;5.17;;;18.50;34.00;;;;;;5014420;28;20419;-83
2024/01/12 12:42:41;;;;;;;7.13;5.60;;;18.50;34.10;;;;;;5013500;28;20501;-83